M I D A S
Marine Information and Data Acquisition System
Tripno 1495 of the Zeeleeuw from 2008-05-29 08:08:25 to 2008-05-29 13:25:32
Back to CruiseResearch ActivitiesStationsMapUnderway DataData graphs

EquipmentUnitsComment
TimeDGPSUTC
LatitudeDGPSDM.mWGS84
LongitudeDGPSDM.mWGS84
HeadingGyrodeg 
SOGDGPSknotsSpeed over ground
COGDGPSdegCourse over ground
DepthEcho soundermeters200 kHz
Missing or incorrect values are displayed as -999
Navigation data collected by the RV Zeeleeuw from 2008-05-29 08:10:42 to 2008-05-29 13:32:13
Time Latitude Longitude Heading SOG COG Depth
2008-05-29 08:11:48 51°13.643 2°55.99 120.2 3.8 299 -999
2008-05-29 08:12:48 51°13.678 2°55.881 113.4 4.9 294 -999
2008-05-29 08:13:48 51°13.695 2°55.781 99.2 2.8 280 12.8
2008-05-29 08:14:48 51°13.698 2°55.754 71 0.4 31 -999
2008-05-29 08:15:48 51°13.701 2°55.757 33 1.4 215 -999
2008-05-29 08:16:47 51°13.72 2°55.74 345.4 4.8 337 14.6
2008-05-29 08:17:46 51°13.809 2°55.652 330.9 6.4 330 11.8
2008-05-29 08:18:45 51°13.902 2°55.581 341.2 6.2 338 12.3
2008-05-29 08:19:45 51°13.994 2°55.521 339.6 5.7 336 12.1
2008-05-29 08:20:45 51°14.068 2°55.47 339.6 4.4 337 12.1
2008-05-29 08:21:46 51°14.132 2°55.424 339 4.2 336 -999
2008-05-29 08:22:48 51°14.219 2°55.355 333.8 5.9 329 11.9
2008-05-29 08:23:46 51°14.286 2°55.234 307.3 7.6 305 -999
2008-05-29 08:24:45 51°14.363 2°55.024 297.9 10.8 296 11.9
2008-05-29 08:25:45 51°14.452 2°54.751 299.3 12 300 12.8
2008-05-29 08:26:44 51°14.545 2°54.477 296 12.1 298 12.6
2008-05-29 08:27:45 51°14.639 2°54.186 296.5 12.2 298 12.7
2008-05-29 08:28:44 51°14.698 2°53.883 283.1 12.1 285 12.4
2008-05-29 08:29:45 51°14.755 2°53.57 285.8 12.2 288 11.7
2008-05-29 08:30:45 51°14.81 2°53.257 285.1 12.2 286 11.9
2008-05-29 08:31:44 51°14.861 2°52.947 281 12.3 280 11.7
2008-05-29 08:32:45 51°14.897 2°52.619 280.1 12.4 281 11.7
2008-05-29 08:33:45 51°14.937 2°52.295 279.4 12.4 282 11.9
2008-05-29 08:34:44 51°14.975 2°51.98 279.9 12.3 280 12.5
2008-05-29 08:35:45 51°15.021 2°51.657 281.5 12.3 284 13
2008-05-29 08:36:45 51°15.065 2°51.343 281.1 12.1 284 13.4
2008-05-29 08:37:44 51°15.117 2°51.035 285 12.3 287 13.8
2008-05-29 08:38:45 51°15.17 2°50.716 282.4 12.3 283 14
2008-05-29 08:39:44 51°15.224 2°50.408 284 12.2 286 14.2
2008-05-29 08:40:45 51°15.275 2°50.087 281.8 12.4 284 14.4
2008-05-29 08:41:44 51°15.323 2°49.772 282.5 12.4 284 14.6
2008-05-29 08:42:44 51°15.378 2°49.457 285.9 12.3 288 14.5
2008-05-29 08:43:44 51°15.437 2°49.145 285.5 12.2 287 14.5
2008-05-29 08:44:45 51°15.5 2°48.828 288.3 12.4 290 12.6
2008-05-29 08:45:45 51°15.568 2°48.517 288.2 12.5 289 12
2008-05-29 08:46:44 51°15.632 2°48.21 286.8 12.3 289 12.7
2008-05-29 08:47:44 51°15.697 2°47.901 286.2 12.2 287 14.4
2008-05-29 08:48:44 51°15.764 2°47.597 289.8 12.2 292 16.1
2008-05-29 08:49:45 51°15.843 2°47.291 289 12.2 293 17.6
2008-05-29 08:50:45 51°15.913 2°46.988 287.3 12.1 290 18.1
2008-05-29 08:51:44 51°15.99 2°46.696 289.5 12.1 293 17.2
2008-05-29 08:52:45 51°16.074 2°46.398 289.8 12.1 295 13
2008-05-29 08:53:44 51°16.159 2°46.111 293 12.2 298 12.7
2008-05-29 08:54:44 51°16.253 2°45.821 295.1 12.3 299 11.6
2008-05-29 08:55:44 51°16.345 2°45.528 293.7 12.3 297 12.2
2008-05-29 08:56:44 51°16.444 2°45.236 297.2 12.6 300 12.8
2008-05-29 08:57:44 51°16.545 2°44.943 294.4 12.6 297 12.7
2008-05-29 08:58:44 51°16.643 2°44.647 297 12.7 300 13.5
2008-05-29 08:59:45 51°16.746 2°44.349 296.8 12.6 299 15.9
2008-05-29 09:00:44 51°16.838 2°44.057 292.5 12.5 296 16.5
2008-05-29 09:01:45 51°16.945 2°43.768 303.4 12.5 307 15.9
2008-05-29 09:02:44 51°17.069 2°43.506 305.7 12.6 307 15.8
2008-05-29 09:03:44 51°17.194 2°43.239 304.5 12.4 307 13.7
2008-05-29 09:04:44 51°17.319 2°42.975 305.1 12.4 308 11.9
2008-05-29 09:05:44 51°17.448 2°42.716 305.5 12.6 309 14.6
2008-05-29 09:06:44 51°17.573 2°42.449 302.2 12.7 307 23.9
2008-05-29 09:07:44 51°17.709 2°42.192 307.6 12.7 311 25.1
2008-05-29 09:08:45 51°17.842 2°41.922 301.4 12.6 304 25.3
2008-05-29 09:09:44 51°17.953 2°41.648 301.1 12.4 303 24.6
2008-05-29 09:10:45 51°18.061 2°41.36 298 12.4 300 23.4
2008-05-29 09:11:44 51°18.164 2°41.081 299.5 12.4 303 20.8
2008-05-29 09:12:44 51°18.267 2°40.796 298 12.3 300 17.1
2008-05-29 09:13:44 51°18.374 2°40.516 301 12.4 304 16.9
2008-05-29 09:14:44 51°18.491 2°40.248 298.8 12.3 302 21
2008-05-29 09:15:44 51°18.603 2°39.972 299.4 12.5 304 26
2008-05-29 09:16:44 51°18.717 2°39.696 299.7 12.5 304 25.6
2008-05-29 09:17:45 51°18.839 2°39.418 299.7 12.5 302 26
2008-05-29 09:18:44 51°18.953 2°39.147 298.9 12.4 303 28
2008-05-29 09:19:45 51°19.069 2°38.865 298.4 12.5 304 28.8
2008-05-29 09:20:44 51°19.177 2°38.599 297.7 12.2 301 28.6
2008-05-29 09:21:45 51°19.281 2°38.31 298.5 12.4 301 25.6
2008-05-29 09:22:44 51°19.406 2°38.052 306.2 12.5 309 20.9
2008-05-29 09:23:44 51°19.529 2°37.791 304.7 12.2 308 21.5
2008-05-29 09:24:45 51°19.655 2°37.539 306.9 11.3 311 22.3
2008-05-29 09:25:44 51°19.77 2°37.326 306.1 10.6 309 21.9
2008-05-29 09:26:45 51°19.849 2°37.182 306.6 4.9 312 22
2008-05-29 09:27:44 51°19.893 2°37.107 308.2 3.5 314 23
2008-05-29 09:28:45 51°19.931 2°37.051 313.8 3 320 22
2008-05-29 09:29:45 51°19.974 2°36.996 315.8 3.5 321 22.3
2008-05-29 09:30:45 51°20.02 2°36.934 310.3 3.4 315 23.2
2008-05-29 09:31:45 51°20.05 2°36.889 313 1.7 320 24.2
2008-05-29 09:32:45 51°20.064 2°36.877 325.5 0.3 344 24.1
2008-05-29 09:33:45 51°20.066 2°36.876 324.3 0.1 287 23.8
2008-05-29 09:34:44 51°20.067 2°36.876 312.4 0.1 65 23.7
2008-05-29 09:35:45 51°20.066 2°36.876 301.1 0.1 34 23.7
2008-05-29 09:36:44 51°20.066 2°36.877 293 0.1 187 23.8
2008-05-29 09:37:44 51°20.064 2°36.877 288.4 -999 154 23.9
2008-05-29 09:38:44 51°20.07 2°36.863 307.6 1.7 314 23.2
2008-05-29 09:39:44 51°20.113 2°36.849 10.2 3.4 15 22.7
2008-05-29 09:40:44 51°20.149 2°36.903 60.3 2.3 59 23.2
2008-05-29 09:41:44 51°20.158 2°36.947 86.6 1.3 83 20.8
2008-05-29 09:42:45 51°20.158 2°36.972 107.1 0.6 103 21.8
2008-05-29 09:43:44 51°20.156 2°36.98 123.1 0.1 92 21.7
2008-05-29 09:44:44 51°20.154 2°36.982 142.2 0.1 182 21.6
2008-05-29 09:45:44 51°20.153 2°36.981 155.7 -999 255 21.8
2008-05-29 09:46:44 51°20.151 2°36.98 162.2 0.1 205 21.5
2008-05-29 09:47:44 51°20.149 2°36.977 162.8 0.2 254 21.3
2008-05-29 09:48:44 51°20.146 2°36.974 160 0.2 210 20.9
2008-05-29 09:49:44 51°20.142 2°36.973 152.8 0.2 173 20.4
2008-05-29 09:50:44 51°20.139 2°36.971 145.9 0.2 229 21.4
2008-05-29 09:51:45 51°20.137 2°36.967 143.4 0.2 241 22
2008-05-29 09:52:44 51°20.134 2°36.963 140.7 0.2 210 22.7
2008-05-29 09:53:44 51°20.133 2°36.958 136.5 0.2 264 23
2008-05-29 09:54:44 51°20.131 2°36.951 140 0.3 231 22.3
2008-05-29 09:55:44 51°20.127 2°36.946 143.4 0.2 217 22.8
2008-05-29 09:56:44 51°20.124 2°36.943 142 0.3 202 22.3
2008-05-29 09:57:44 51°20.121 2°36.938 140 0.3 231 22.7
2008-05-29 09:58:44 51°20.118 2°36.932 140.9 0.3 223 22.8
2008-05-29 09:59:44 51°20.114 2°36.927 142.5 0.3 214 22.9
2008-05-29 10:00:45 51°20.11 2°36.923 143.3 0.3 208 23.1
2008-05-29 10:01:44 51°20.106 2°36.919 140.8 0.3 207 23.7
2008-05-29 10:02:45 51°20.102 2°36.916 138.7 0.2 236 23.1
2008-05-29 10:03:45 51°20.099 2°36.911 137.5 0.2 220 21.8
2008-05-29 10:04:44 51°20.095 2°36.907 139.1 0.3 215 21.1
2008-05-29 10:05:45 51°20.092 2°36.901 140.3 0.3 274 21.3
2008-05-29 10:06:44 51°20.092 2°36.89 146.8 0.4 264 21.7
2008-05-29 10:07:44 51°20.091 2°36.881 154.1 0.3 242 22.7
2008-05-29 10:08:44 51°20.088 2°36.873 155.8 0.4 236 23.1
2008-05-29 10:09:44 51°20.084 2°36.866 153.8 0.3 220 22.8
2008-05-29 10:10:44 51°20.079 2°36.861 148.8 0.3 207 22.4
2008-05-29 10:11:45 51°20.074 2°36.857 143.5 0.3 205 22.8
2008-05-29 10:12:44 51°20.069 2°36.854 138.6 0.4 198 23.1
2008-05-29 10:13:44 51°20.064 2°36.853 133.4 0.4 193 22.9
2008-05-29 10:14:45 51°20.058 2°36.851 130.3 0.3 202 23.1
2008-05-29 10:15:44 51°20.053 2°36.849 130 0.4 196 22.8
2008-05-29 10:16:44 51°20.046 2°36.847 128.4 0.4 196 22.9
2008-05-29 10:17:44 51°20.04 2°36.847 127.4 0.4 189 22.7
2008-05-29 10:18:45 51°20.034 2°36.845 125.8 0.4 186 22.3
2008-05-29 10:19:44 51°20.027 2°36.842 126.3 0.5 186 22.2
2008-05-29 10:20:44 51°20.02 2°36.841 127.2 0.6 198 22
2008-05-29 10:21:45 51°20.013 2°36.839 126.3 0.4 189 22.1
2008-05-29 10:22:45 51°20.005 2°36.837 125 0.5 189 22.1
2008-05-29 10:23:44 51°19.991 2°36.846 142.8 1.6 156 22
2008-05-29 10:24:44 51°19.955 2°36.851 190.4 2.5 196 21.3
2008-05-29 10:25:44 51°19.926 2°36.803 246.6 2.7 250 21.7
2008-05-29 10:26:44 51°19.93 2°36.733 299 2.7 297 22.2
2008-05-29 10:27:44 51°19.962 2°36.689 346.7 2.5 341 21.6
2008-05-29 10:28:45 51°19.995 2°36.682 10.7 1.5 355 21.5
2008-05-29 10:29:44 51°20.013 2°36.677 9.7 0.9 347 21.8
2008-05-29 10:30:44 51°20.023 2°36.669 6.1 0.6 321 22.3
2008-05-29 10:31:44 51°20.028 2°36.657 2.8 0.5 298 22.1
2008-05-29 10:32:45 51°20.03 2°36.644 357 0.5 277 22.2
2008-05-29 10:33:45 51°20.029 2°36.628 346.9 0.6 258 22.6
2008-05-29 10:34:44 51°20.025 2°36.612 332.4 0.6 249 22.1
2008-05-29 10:35:45 51°20.021 2°36.597 317.9 0.7 242 22.3
2008-05-29 10:36:44 51°20.016 2°36.582 309 0.7 244 22.3
2008-05-29 10:37:44 51°20.01 2°36.567 302.7 0.7 238 21.7
2008-05-29 10:38:44 51°20.004 2°36.552 300.5 0.8 240 21
2008-05-29 10:39:45 51°20.015 2°36.519 333.1 2.2 322 20.1
2008-05-29 10:40:44 51°20.054 2°36.518 31.5 2.7 29 21.7
2008-05-29 10:41:44 51°20.084 2°36.587 62.3 3.7 61 22
2008-05-29 10:42:44 51°20.104 2°36.656 65.2 2.3 71 22.1
2008-05-29 10:43:44 51°20.109 2°36.701 77.6 1.4 87 22.3
2008-05-29 10:44:44 51°20.107 2°36.727 84.1 0.6 108 22.3
2008-05-29 10:45:44 51°20.101 2°36.74 88.9 0.6 135 22.3
2008-05-29 10:46:45 51°20.094 2°36.747 90 0.4 167 22
2008-05-29 10:47:45 51°20.087 2°36.738 98.8 0.6 226 22.3
2008-05-29 10:48:45 51°20.079 2°36.725 112.9 0.8 224 22.2
2008-05-29 10:49:45 51°20.07 2°36.71 126.2 0.8 228 22.1
2008-05-29 10:50:44 51°20.061 2°36.694 136.7 0.8 228 21.7
2008-05-29 10:51:45 51°20.053 2°36.678 139.3 0.8 230 20.9
2008-05-29 10:52:45 51°20.044 2°36.662 141.8 0.8 229 21.2
2008-05-29 10:53:45 51°20.037 2°36.645 142.2 0.8 232 22.3
2008-05-29 10:54:44 51°20.028 2°36.626 144.3 0.9 233 22.3
2008-05-29 10:55:45 51°20.02 2°36.609 142 0.8 233 22
2008-05-29 10:56:44 51°20.011 2°36.59 141 0.9 232 22.1
2008-05-29 10:57:45 51°20.003 2°36.57 138.1 0.9 233 21.6
2008-05-29 10:58:44 51°19.989 2°36.565 118.1 0.9 167 21.1
2008-05-29 10:59:45 51°19.976 2°36.582 90.3 1 120 21.2
2008-05-29 11:00:45 51°19.976 2°36.608 62.5 1 69 21.4
2008-05-29 11:01:45 51°19.987 2°36.63 46.4 1 40 21.6
2008-05-29 11:02:45 51°20 2°36.645 45.1 0.9 34 21.8
2008-05-29 11:03:45 51°20.012 2°36.658 49.7 0.6 36 21.8
2008-05-29 11:04:45 51°20.018 2°36.664 54.1 0.2 31 21.7
2008-05-29 11:05:45 51°20.017 2°36.663 59.8 0.1 224 21.7
2008-05-29 11:06:44 51°20.013 2°36.658 63.7 0.3 226 21.7
2008-05-29 11:07:44 51°20.01 2°36.653 62.7 0.3 212 21.6
2008-05-29 11:08:44 51°20.007 2°36.648 55.1 0.3 240 21.6
2008-05-29 11:09:45 51°20.005 2°36.642 48 0.3 249 21.6
2008-05-29 11:10:45 51°20.013 2°36.641 21.9 1.7 1 21.9
2008-05-29 11:11:45 51°20.025 2°36.627 353.9 0.8 286 22
2008-05-29 11:12:45 51°20.026 2°36.602 327.9 1 268 22.2
2008-05-29 11:13:45 51°20.022 2°36.572 309.8 1.2 256 21.7
2008-05-29 11:14:45 51°20.018 2°36.543 301.2 1.2 252 20.7
2008-05-29 11:15:45 51°20.013 2°36.514 301.2 1.2 249 21.2
2008-05-29 11:16:45 51°20.006 2°36.486 304.8 1.1 249 21.4
2008-05-29 11:17:44 51°20.004 2°36.454 315.7 1.5 280 21.4
2008-05-29 11:18:45 51°20.022 2°36.415 352.2 2 327 21.6
2008-05-29 11:19:44 51°20.051 2°36.413 38.4 1.8 28 22.1
2008-05-29 11:20:45 51°20.064 2°36.459 76.2 2.3 82 19.8
2008-05-29 11:21:44 51°20.068 2°36.528 76.1 2.9 81 21.8
2008-05-29 11:22:45 51°20.068 2°36.599 94.1 2 110 21.9
2008-05-29 11:23:44 51°20.056 2°36.637 95 1.6 109 21.8
2008-05-29 11:24:44 51°20.062 2°36.671 55.9 1.2 49 20.9
2008-05-29 11:25:44 51°20.075 2°36.69 51.4 0.9 32 21.6
2008-05-29 11:26:44 51°20.088 2°36.694 31.7 0.8 350 21.9
2008-05-29 11:27:44 51°20.101 2°36.682 3.4 1 316 21.8
2008-05-29 11:28:44 51°20.109 2°36.654 333.2 1.3 279 21.9
2008-05-29 11:29:44 51°20.111 2°36.618 321.7 1.4 269 21.4
2008-05-29 11:30:44 51°20.11 2°36.58 318 1.4 264 21.4
2008-05-29 11:31:44 51°20.107 2°36.544 317.7 1.5 266 20.9
2008-05-29 11:32:44 51°20.125 2°36.502 355.8 2.3 336 21
2008-05-29 11:33:44 51°20.156 2°36.519 61 1.6 55 21.7
2008-05-29 11:34:44 51°20.168 2°36.546 45.1 0.6 22 20.7
2008-05-29 11:35:44 51°20.169 2°36.535 28.5 0.6 260 20.3
2008-05-29 11:36:44 51°20.165 2°36.514 18.9 1 254 21.2
2008-05-29 11:37:44 51°20.159 2°36.488 7.7 1.1 249 21.2
2008-05-29 11:38:44 51°20.15 2°36.458 349.7 1.4 240 21.2
2008-05-29 11:39:44 51°20.139 2°36.429 335.4 1.2 251 21.2
2008-05-29 11:40:44 51°20.172 2°36.414 34.9 2.8 30 21.2
2008-05-29 11:41:45 51°20.181 2°36.47 94.3 1.8 112 21.4
2008-05-29 11:42:44 51°20.162 2°36.504 115.5 1.8 142 21.5
2008-05-29 11:43:45 51°20.139 2°36.532 113.3 1.6 138 21.5
2008-05-29 11:44:44 51°20.122 2°36.559 108.1 1.4 129 21.3
2008-05-29 11:45:44 51°20.109 2°36.583 104.4 0.9 132 21.4
2008-05-29 11:46:45 51°20.097 2°36.592 102.2 0.7 172 21.3
2008-05-29 11:47:45 51°20.088 2°36.591 98.6 0.6 200 21.2
2008-05-29 11:48:44 51°20.079 2°36.582 96.5 0.6 218 21.3
2008-05-29 11:49:44 51°20.07 2°36.559 99.5 1.1 239 20.3
2008-05-29 11:50:45 51°20.07 2°36.58 59.1 2 51 21.2
2008-05-29 11:51:44 51°20.1 2°36.586 5.5 1 316 21.6
2008-05-29 11:52:47 51°20.088 2°36.566 335.2 1.1 213 -999
2008-05-29 11:53:46 51°20.074 2°36.547 322.3 1 221 20.6
2008-05-29 11:54:47 51°20.062 2°36.527 311.4 1 229 21.4
2008-05-29 11:55:45 51°20.051 2°36.507 302.4 1 231 20.7
2008-05-29 11:56:44 51°20.041 2°36.485 294.5 1.1 238 19.4
2008-05-29 11:57:44 51°20.031 2°36.459 290.1 1.2 237 21.4
2008-05-29 11:58:45 51°20.021 2°36.432 286 1.3 236 21.6
2008-05-29 11:59:45 51°20.011 2°36.405 286.2 1.2 242 20.9
2008-05-29 12:00:44 51°20.002 2°36.376 288 1.2 242 20.4
2008-05-29 12:01:45 51°19.992 2°36.347 290.9 1.3 240 21.5
2008-05-29 12:02:44 51°19.982 2°36.318 293.9 1.3 241 21.2
2008-05-29 12:03:45 51°19.972 2°36.287 296.1 1.3 245 19.8
2008-05-29 12:04:45 51°19.963 2°36.254 299 1.7 259 20.4
2008-05-29 12:05:44 51°19.987 2°36.202 357 3.2 341 20.3
2008-05-29 12:06:45 51°20.021 2°36.252 87.8 3.6 95 19.2
2008-05-29 12:07:44 51°19.992 2°36.402 101.4 7.8 105 20.7
2008-05-29 12:08:45 51°19.959 2°36.636 98.7 9.2 101 20.8
2008-05-29 12:09:44 51°19.928 2°36.904 98.1 11.2 100 20.6
2008-05-29 12:10:45 51°19.9 2°37.206 97.5 11.3 100 21.1
2008-05-29 12:11:44 51°19.863 2°37.497 98.9 11.4 100 20
2008-05-29 12:12:44 51°19.833 2°37.796 99.2 11.4 100 21.4
2008-05-29 12:13:45 51°19.798 2°38.1 99.3 11.5 100 21.7
2008-05-29 12:14:44 51°19.769 2°38.396 98.8 11.6 100 21.9
2008-05-29 12:15:44 51°19.735 2°38.698 99.2 11.6 100 23.7
2008-05-29 12:16:45 51°19.699 2°39.005 98.7 11.6 101 26
2008-05-29 12:17:45 51°19.663 2°39.309 98 11.6 101 27.9
2008-05-29 12:18:44 51°19.629 2°39.609 98.7 11.7 102 29.2
2008-05-29 12:19:45 51°19.587 2°39.92 99.3 11.8 102 27.9
2008-05-29 12:20:45 51°19.553 2°40.222 96.7 11.5 99 24
2008-05-29 12:21:45 51°19.515 2°40.518 98.3 11 100 16.6
2008-05-29 12:22:45 51°19.478 2°40.809 97.4 11.2 99 19.7
2008-05-29 12:23:45 51°19.431 2°41.099 103.3 11.3 107 19.1
2008-05-29 12:24:44 51°19.385 2°41.383 101.4 11.3 106 20.3
2008-05-29 12:25:44 51°19.335 2°41.674 102.2 11.4 105 20.5
2008-05-29 12:26:45 51°19.278 2°41.973 103.8 11.6 108 21.8
2008-05-29 12:27:44 51°19.223 2°42.264 103.3 11.6 106 22.5
2008-05-29 12:28:45 51°19.172 2°42.566 101 11.7 105 23
2008-05-29 12:29:45 51°19.117 2°42.864 103.7 11.7 107 23.3
2008-05-29 12:30:45 51°19.061 2°43.157 101.7 11.6 109 23
2008-05-29 12:31:45 51°18.998 2°43.448 102.5 11.5 107 22.4
2008-05-29 12:32:45 51°18.94 2°43.74 103.7 11.6 108 22
2008-05-29 12:33:44 51°18.882 2°44.028 102.8 11.6 106 21
2008-05-29 12:34:45 51°18.828 2°44.325 102.5 11.3 108 14.6
2008-05-29 12:35:45 51°18.772 2°44.605 101.9 10.9 107 11.7
2008-05-29 12:36:45 51°18.718 2°44.885 100.8 11 107 12.1
2008-05-29 12:37:44 51°18.662 2°45.163 103.6 11.3 110 17.3
2008-05-29 12:38:45 51°18.601 2°45.451 101.2 11.2 108 19.6
2008-05-29 12:39:44 51°18.542 2°45.732 101.7 11.4 109 19.7
2008-05-29 12:40:45 51°18.492 2°46.026 98.9 11.2 105 19.2
2008-05-29 12:41:45 51°18.442 2°46.316 100.1 11.3 107 17.5
2008-05-29 12:42:45 51°18.393 2°46.604 99 11.1 106 17.5
2008-05-29 12:43:45 51°18.343 2°46.889 98.9 11.1 104 16.9
2008-05-29 12:44:45 51°18.297 2°47.175 98.6 11 104 15.5
2008-05-29 12:45:45 51°18.252 2°47.461 100.1 11.2 106 12.7
2008-05-29 12:46:44 51°18.208 2°47.742 98.6 11.1 103 11.7
2008-05-29 12:47:45 51°18.16 2°48.035 99.4 11.3 105 10.3
2008-05-29 12:48:44 51°18.114 2°48.316 99.2 11.2 106 9.7
2008-05-29 12:49:45 51°18.071 2°48.607 98.9 11 106 9.3
2008-05-29 12:50:45 51°18.018 2°48.888 100.5 11.1 107 8.9
2008-05-29 12:51:45 51°17.976 2°49.172 97.9 11 105 11
2008-05-29 12:52:45 51°17.928 2°49.456 98.2 11.1 103 12.6
2008-05-29 12:53:45 51°17.887 2°49.744 95.3 11.1 102 12.9
2008-05-29 12:54:45 51°17.849 2°50.032 95.5 11.1 102 12.3
2008-05-29 12:55:45 51°17.809 2°50.32 97.3 11.1 104 12
2008-05-29 12:56:45 51°17.77 2°50.608 94.3 11.1 102 11.4
2008-05-29 12:57:44 51°17.73 2°50.892 95.6 11.2 103 10.3
2008-05-29 12:58:45 51°17.675 2°51.183 101.3 11.2 108 9
2008-05-29 12:59:44 51°17.629 2°51.467 105.5 11.4 113 8.9
2008-05-29 13:00:45 51°17.53 2°51.739 118.1 11.9 128 9.3
2008-05-29 13:01:45 51°17.383 2°51.951 136.3 11.4 148 10
2008-05-29 13:02:44 51°17.275 2°52.064 125.8 4.5 146 10.1
2008-05-29 13:03:45 51°17.226 2°52.082 149.4 2.4 185 10
2008-05-29 13:04:45 51°17.186 2°52.074 145.1 2.5 182 10.1
2008-05-29 13:05:45 51°17.093 2°52.125 147.1 9 158 9.8
2008-05-29 13:06:44 51°16.914 2°52.208 165.5 12.7 174 9.1
2008-05-29 13:07:45 51°16.696 2°52.241 167.2 12.9 172 9.3
2008-05-29 13:08:45 51°16.481 2°52.277 168.6 13.1 172 10.7
2008-05-29 13:09:44 51°16.267 2°52.298 169.1 13.2 178 11.3
2008-05-29 13:10:45 51°16.045 2°52.319 170.4 13.2 178 11.4
2008-05-29 13:11:45 51°15.839 2°52.387 151.4 12.5 160 11.2
2008-05-29 13:12:45 51°15.666 2°52.559 137.5 12.2 146 10.9
2008-05-29 13:13:44 51°15.522 2°52.769 124.7 11.8 131 10.5
2008-05-29 13:14:45 51°15.39 2°53.011 126.2 12 136 10
2008-05-29 13:15:45 51°15.249 2°53.239 128.2 12.1 135 9.5
2008-05-29 13:16:45 51°15.13 2°53.462 121.8 9.2 129 9.2
2008-05-29 13:17:45 51°15.043 2°53.628 120.1 7.8 129 9.1
2008-05-29 13:18:44 51°14.967 2°53.764 120.9 6.6 132 9.2
2008-05-29 13:19:45 51°14.89 2°53.895 121.7 6.9 133 9
2008-05-29 13:20:45 51°14.817 2°54.061 114 8.4 125 8.7
2008-05-29 13:21:45 51°14.741 2°54.264 112.2 9.3 121 9.4
2008-05-29 13:22:45 51°14.655 2°54.423 123.2 7 133 9.6
2008-05-29 13:23:44 51°14.556 2°54.585 123.4 10 130 9.7
2008-05-29 13:24:44 51°14.456 2°54.827 111 11.3 116 10.2
2008-05-29 13:25:45 51°14.356 2°55.086 126.5 10.9 126 -999
2008-05-29 13:26:45 51°14.273 2°55.243 132.2 6.4 133 9.7
2008-05-29 13:27:46 51°14.199 2°55.347 143.6 5.6 144 10.1
2008-05-29 13:28:48 51°14.109 2°55.43 155.3 6 155 -999
2008-05-29 13:29:47 51°14.019 2°55.491 154.6 6.3 156 9.7
2008-05-29 13:30:46 51°13.911 2°55.572 154 8.2 154 10
2008-05-29 13:31:45 51°13.798 2°55.669 147.1 6.8 146 9.3